»·PEaware :: SWA4262 KSAN-KLAS

SWA4262 :: KSAN-KLAS

FLIGHT INFORMATION

Flight Status: Arrived
Operator:
Southwest Airlines
More flights by this operator :: More flights under this callsign
Pilot: Nick B. (16803)
Aircraft: BOEING 737-700
(B737)
More flights by this aircraft type
Origin: KSAN San Diego Intl-Lindbergh
United States
Destination: KLAS McCarran Intl
United States
More flights between these airports :: More routes between these airports
Route: PADRZ1 CHKNN SEBBY YELAH MISEN KEPEC5
File this flight plan on PilotEdge
Remarks:
Altitude:
(Current/Filed)
29,000ft
Speed:
(Current/Filed)
450kts
Departed: 05-Oct-17 07:16 PM
Arrived: 05-Oct-17 08:19 PM
Distance/Time
Traveled:
225nm/1:02
Distance/Time
To Go:
Arrived

Flight Plot

Page will automatically refresh every two minutes.

Flight plan parsing failed; only flown route is shown


Map Options




Map Legend


Flown Route
Filed Route
Departure Airport
Arrival Airport
Navaid (VOR, NDB)
Fix

Horizontal Profiles

Position Reports

Time Latitude Longitude Heading Altitude Ground
Speed
05-Oct-17 18:50 32.733388 -117.199143 117 23ft 0kts
05-Oct-17 18:51 32.733388 -117.199143 117 23ft 0kts
05-Oct-17 18:52 32.733388 -117.199143 117 23ft 0kts
05-Oct-17 18:53 32.733388 -117.199143 117 23ft 0kts
05-Oct-17 18:54 32.733388 -117.199143 117 23ft 0kts
05-Oct-17 18:55 32.733388 -117.199143 117 23ft 0kts
05-Oct-17 18:56 32.733388 -117.199143 117 23ft 0kts
05-Oct-17 18:57 32.733388 -117.199143 117 23ft 0kts
05-Oct-17 18:58 32.733388 -117.199143 117 23ft 0kts
05-Oct-17 18:59 32.733388 -117.199143 117 22ft 0kts
05-Oct-17 19:00 32.733388 -117.199143 117 22ft 0kts
05-Oct-17 19:01 32.733388 -117.199143 117 22ft 0kts
05-Oct-17 19:02 32.733388 -117.199143 117 22ft 0kts
05-Oct-17 19:03 32.733388 -117.199143 117 22ft 0kts
05-Oct-17 19:04 32.733388 -117.199143 117 22ft 0kts
05-Oct-17 19:05 32.733510 -117.199418 117 22ft 2kts
05-Oct-17 19:06 32.733574 -117.199563 117 22ft 2kts
05-Oct-17 19:07 32.733574 -117.199563 117 22ft 2kts
05-Oct-17 19:08 32.733743 -117.199943 117 22ft 0kts
05-Oct-17 19:09 32.733743 -117.199943 117 22ft 0kts
05-Oct-17 19:10 32.733743 -117.199943 117 22ft 0kts
05-Oct-17 19:11 32.733743 -117.199943 117 22ft 0kts
05-Oct-17 19:12 32.733742 -117.199943 117 22ft 0kts
05-Oct-17 19:13 32.733742 -117.199943 117 22ft 0kts
05-Oct-17 19:14 32.733742 -117.199943 117 22ft 0kts
05-Oct-17 19:15 32.733742 -117.199943 117 22ft 0kts
05-Oct-17 19:16 32.734332 -117.197306 104 22ft 22kts
05-Oct-17 19:17 32.731830 -117.186875 105 22ft 40kts
05-Oct-17 19:18 32.731017 -117.183469 106 22ft 11kts
05-Oct-17 19:19 32.731832 -117.181991 285 22ft 12kts
05-Oct-17 19:20 32.739761 -117.220125 282 1427ft 159kts
05-Oct-17 19:21 32.767792 -117.271578 309 2830ft 224kts
05-Oct-17 19:22 32.809244 -117.333205 308 4950ft 243kts
05-Oct-17 19:23 32.851656 -117.398882 307 7252ft 264kts
05-Oct-17 19:24 32.898166 -117.471223 308 9903ft 283kts
05-Oct-17 19:25 32.950047 -117.551879 309 11448ft 338kts
05-Oct-17 19:26 33.009001 -117.643903 305 13542ft 362kts
05-Oct-17 19:27 33.072972 -117.738589 315 16000ft 372kts
05-Oct-17 19:28 33.153152 -117.820456 316 18138ft 386kts
05-Oct-17 19:29 33.237411 -117.904581 317 20093ft 397kts
05-Oct-17 19:30 33.324287 -117.989311 317 21929ft 407kts
05-Oct-17 19:31 33.412742 -118.075555 317 23611ft 414kts
05-Oct-17 19:32 33.502302 -118.163604 316 25161ft 419kts
05-Oct-17 19:33 33.596567 -118.246643 327 26590ft 428kts
05-Oct-17 19:34 33.706794 -118.301452 347 28274ft 434kts
05-Oct-17 19:35 33.818763 -118.243521 45 28921ft 481kts
05-Oct-17 19:36 33.893971 -118.109392 49 28919ft 483kts
05-Oct-17 19:37 33.971837 -117.977563 48 28930ft 482kts
05-Oct-17 19:38 34.049611 -117.845267 49 28948ft 487kts
05-Oct-17 19:39 34.130732 -117.715398 43 28957ft 480kts
05-Oct-17 19:40 34.216277 -117.591262 44 28950ft 484kts
05-Oct-17 19:41 34.301926 -117.465523 44 28949ft 482kts
05-Oct-17 19:42 34.387454 -117.340119 44 28958ft 487kts
05-Oct-17 19:43 34.472999 -117.213820 44 28956ft 485kts
05-Oct-17 19:44 34.558681 -117.086750 44 28970ft 487kts
05-Oct-17 19:45 34.644137 -116.959446 45 28970ft 487kts
05-Oct-17 19:46 34.729945 -116.831561 45 28977ft 488kts
05-Oct-17 19:47 34.814593 -116.704322 44 28980ft 474kts
05-Oct-17 19:48 34.906215 -116.593496 30 28154ft 459kts
05-Oct-17 19:49 35.005689 -116.497995 32 26036ft 447kts
05-Oct-17 19:50 35.101379 -116.404504 35 24057ft 434kts
05-Oct-17 19:51 35.185019 -116.301760 40 22408ft 414kts
05-Oct-17 19:52 35.263296 -116.202278 40 20903ft 401kts
05-Oct-17 19:53 35.340621 -116.104447 40 19418ft 398kts
05-Oct-17 19:54 35.417640 -116.007564 40 17942ft 392kts
05-Oct-17 19:55 35.491239 -115.914774 40 16524ft 368kts
05-Oct-17 19:56 35.561964 -115.824948 41 15164ft 363kts
05-Oct-17 19:57 35.630482 -115.737532 41 13838ft 347kts
05-Oct-17 19:58 35.695143 -115.654979 41 12966ft 317kts
05-Oct-17 19:59 35.759196 -115.581864 18 12957ft 309kts
05-Oct-17 20:00 35.842186 -115.570328 357 12967ft 299kts
05-Oct-17 20:01 35.925418 -115.566090 358 12970ft 299kts
05-Oct-17 20:02 35.993512 -115.512896 69 12424ft 332kts
05-Oct-17 20:03 36.020297 -115.407989 65 11325ft 306kts
05-Oct-17 20:04 36.026565 -115.307656 95 10191ft 284kts
05-Oct-17 20:05 36.019382 -115.213707 92 9110ft 272kts
05-Oct-17 20:06 36.019069 -115.209529 92 9060ft 272kts
05-Oct-17 20:07 36.017780 -115.190947 92 8870ft 270kts
05-Oct-17 20:08 36.015916 -115.163326 92 8655ft 270kts
05-Oct-17 20:09 36.010511 -115.084136 92 8002ft 251kts
05-Oct-17 20:10 36.005562 -114.999561 92 7989ft 249kts
05-Oct-17 20:11 36.000440 -114.914681 92 7993ft 244kts
05-Oct-17 20:12 35.995717 -114.838909 92 7974ft 200kts
05-Oct-17 20:13 36.004145 -114.775185 38 7610ft 187kts
05-Oct-17 20:14 36.050742 -114.752542 330 5806ft 183kts
05-Oct-17 20:15 36.068215 -114.805794 278 5476ft 163kts
05-Oct-17 20:16 36.072628 -114.861979 275 5287ft 163kts
05-Oct-17 20:17 36.073691 -114.906772 272 5068ft 164kts
05-Oct-17 20:18 36.073797 -114.963099 271 4574ft 163kts
05-Oct-17 20:19 36.073759 -115.017163 270 3889ft 149kts
05-Oct-17 20:20 36.073715 -115.069516 270 3096ft 156kts
05-Oct-17 20:21 36.073684 -115.105932 270 2524ft 153kts
05-Oct-17 20:22 36.073581 -115.137694 269 2190ft 139kts
05-Oct-17 20:23 36.074238 -115.155823 348 2188ft 21kts
05-Oct-17 20:24 36.076413 -115.157037 328 2188ft 15kts
05-Oct-17 20:25 36.078016 -115.155815 93 2188ft 19kts
05-Oct-17 20:26 36.080772 -115.151574 46 2188ft 14kts
05-Oct-17 20:27 36.082936 -115.150027 261 2188ft 2kts
05-Oct-17 20:28 36.082897 -115.150297 259 2188ft 0kts
05-Oct-17 20:29 36.082897 -115.150297 259 2188ft 0kts

Navigation Log

Ident Type
Flight plan parsing failed, navigation log unavailable